Friday, May 25, 2018, 8:27 PM EDT
Back to Local

KHUL, Houlton Int'l Airport

Location: Houlton, ME, United States Lat: 46.117
Local Time: 8:27 PM EDT ( 0:27 GMT) Lon: -67.8
Time Zone: US/Eastern Elev: 492 ft

Show me the last for .
Show Decoded

2018-05-25 19:53 METAR KHUL 252353Z AUTO 15004KT 8SM SCT090 BKN110 17/16 A2956 RMK AO2 LTG DSNT E
                 AND S AND W RAB17E30 SLP011 P0001 60011 T01670161 10283 20167 53027 =
2018-05-25 18:45 METAR KHUL 252245Z AUTO 04005KT 10SM FEW036 BKN090 OVC110 17/16 A2955 RMK AO2
                 LTG DSNT E AND SE RAB20E45 TSB20E39 P0003 T01720161 =
2018-05-25 18:37 METAR KHUL 252237Z AUTO 09003KT 2SM -TSRA BR SCT037 BKN070 OVC110 17/16 A2954
                 RMK AO2 LTG DSNT SE RAB20 TSB20 P0003 T01720161 =
2018-05-25 18:26 METAR KHUL 252226Z AUTO 31004KT 8SM -TSRA FEW070 BKN090 BKN110 17/16 A2955 RMK
                 AO2 LTG DSNT E AND SE RAB20 TSB20 PRESRR P0001 T01720156 =
2018-05-25 17:53 METAR KHUL 252153Z AUTO 06007KT 10SM FEW060 SCT090 BKN110 18/15 A2950 RMK AO2
                 LTG DSNT NE AND E RAE32 TSB03E21 SLP992 P0006 T01830150 =
2018-05-25 17:40 METAR KHUL 252140Z AUTO 34012KT 10SM FEW040 FEW065 BKN090 18/16 A2955 RMK AO2
                 LTG DSNT E RAE32 TSB03E21 PRESRR P0006 T01830156 =
2018-05-25 17:27 METAR KHUL 252127Z AUTO 02012KT 7SM VCTS -RA FEW039 SCT065 BKN095 19/16 A2950
                 RMK AO2 LTG DSNT ALQDS TSB03E21 P0006 T01890156 =
2018-05-25 17:03 METAR KHUL 252103Z AUTO 02015KT 8SM -TSRA SCT085 OVC110 21/16 A2949 RMK AO2 LTG
                 DSNT N AND NW TSB03 PRESRR P0001 T02110156 =
2018-05-25 16:53 METAR KHUL 252053Z AUTO 05009KT 10SM -RA BKN085 BKN110 23/15 A2948 RMK AO2 LTG
                 DSNT N AND NW RAB23 SLP983 P0001 60001 T02280150 55011 =
2018-05-25 15:53 METAR KHUL 251953Z AUTO 36005KT 8SM FEW110 27/13 A2947 RMK AO2 SLP979 T02720133
                 =
2018-05-25 14:53 METAR KHUL 251853Z AUTO 34003KT 7SM SCT095 28/13 A2949 RMK AO2 SLP985 T02780133
                 =
2018-05-25 13:53 METAR KHUL 251753Z AUTO 24007KT 10SM SCT095 27/13 A2951 RMK AO2 SLP993 T02670128
                 10267 20117 57038 =
2018-05-25 12:53 METAR KHUL 251653Z AUTO 16007KT 10SM SCT085 24/13 A2955 RMK AO2 PRESFR SLP005
                 T02390128 =
2018-05-25 11:53 METAR KHUL 251553Z AUTO 19009KT 150V210 10SM SCT110 21/11 A2959 RMK AO2 SLP021
                 T02060111 =
2018-05-25 10:53 METAR KHUL 251453Z AUTO 00000KT 10SM SCT110 19/11 A2962 RMK AO2 SLP032 T01940106
                 58017 =
2018-05-25 09:53 METAR KHUL 251353Z AUTO 01003KT 10SM BKN100 17/11 A2966 RMK AO2 SLP043 T01720106
                 =
2018-05-25 08:53 METAR KHUL 251253Z AUTO 16005KT 10SM CLR 14/10 A2965 RMK AO2 SLP041 T01390100 =
2018-05-25 07:53 METAR KHUL 251153Z AUTO 20004KT 10SM CLR 12/09 A2968 RMK AO2 SLP050 60002 70007
                 T01170089 10117 20089 56016 =
2018-05-25 06:53 METAR KHUL 251053Z AUTO 19005KT 10SM CLR 10/09 A2968 RMK AO2 SLP053 T01000089 =
2018-05-25 04:53 METAR KHUL 250853Z AUTO 00000KT 10SM OVC100 09/08 A2972 RMK AO2 RAE11 SLP067
                 P0000 60002 T00940078 55024 =
2018-05-25 03:53 METAR KHUL 250753Z AUTO 20005KT 10SM -RA OVC095 09/08 A2972 RMK AO2
                 RAB0654E24B48 SLP066 P0002 T00890078 =
2018-05-25 02:53 METAR KHUL 250653Z AUTO 00000KT 10SM OVC090 09/08 A2977 RMK AO2 RAB07E16 SLP083
                 P0000 T00940078 =
2018-05-25 01:53 METAR KHUL 250553Z AUTO 20006KT 10SM OVC100 09/08 A2980 RMK AO2 SLP092 60005
                 T00940078 10150 20094 56039 =
2018-05-25 00:53 METAR KHUL 250453Z AUTO 19006KT 10SM FEW065 BKN110 09/08 A2982 RMK AO2 RAE12
                 SLP098 P0000 T00940083 401831006 =
2018-05-24 23:53 METAR KHUL 250353Z AUTO 18006KT 10SM -RA OVC085 10/08 A2987 RMK AO2 SLP118 P0002
                 T01000083 =
2018-05-24 21:53 METAR KHUL 250153Z AUTO 21007KT 10SM -RA OVC065 12/04 A2992 RMK AO2
                 RAB0059E32B52 SLP135 P0000 T01220044 =
2018-05-24 20:53 METAR KHUL 250053Z AUTO 19003KT 10SM OVC070 13/02 A2991 RMK AO2 SLP131 T01330017
                 =

Support USWX by starting your Amazon purchase here.